Time;durP1;ratioP1;P1;durP2;ratioP2;P2;SDS_P1;SDS_P2;PMS_P1;PMS_P2;Temp;Humidity;BMP_temperature;BMP_pressure;BME280_temperature;BME280_humidity;BME280_pressure;Samples;Min_cycle;Max_cycle;Signal;HPM_P1;HPM_P2
2022/03/20 00:00:09;;;;;;;40.30;20.77;;;4.60;49.50;;;;;;5053428;28;20021;-66
2022/03/20 00:02:35;;;;;;;41.55;19.27;;;4.50;49.30;;;;;;5045774;28;20104;-66
2022/03/20 00:05:02;;;;;;;39.30;18.10;;;4.50;49.40;;;;;;5049517;28;20377;-66
2022/03/20 00:07:33;;;;;;;36.10;18.33;;;4.50;49.40;;;;;;5057471;28;20021;-68
2022/03/20 00:09:59;;;;;;;43.57;20.40;;;4.40;49.40;;;;;;5053770;28;20056;-66
2022/03/20 00:12:24;;;;;;;42.13;20.45;;;4.50;49.20;;;;;;5054236;28;20114;-66
2022/03/20 00:14:50;;;;;;;38.97;19.00;;;4.50;49.40;;;;;;5052494;28;20125;-65
2022/03/20 00:17:16;;;;;;;37.17;17.57;;;4.50;48.90;;;;;;5052608;28;20025;-66
2022/03/20 00:19:42;;;;;;;37.42;18.45;;;4.40;48.80;;;;;;5052589;28;20401;-66
2022/03/20 00:22:08;;;;;;;35.85;18.77;;;4.40;48.80;;;;;;5051584;28;20037;-64
2022/03/20 00:24:34;;;;;;;34.60;17.60;;;4.40;48.60;;;;;;5052864;28;20025;-67
2022/03/20 00:27:00;;;;;;;39.13;20.33;;;4.40;48.60;;;;;;5053738;28;20104;-67
2022/03/20 00:29:27;;;;;;;40.33;17.33;;;4.30;48.60;;;;;;5052982;28;20040;-66
2022/03/20 00:31:54;;;;;;;37.00;19.17;;;4.40;48.30;;;;;;5046173;28;20021;-67
2022/03/20 00:34:19;;;;;;;33.33;14.97;;;4.40;48.10;;;;;;5061705;28;20319;-66
2022/03/20 00:36:45;;;;;;;36.97;18.93;;;4.40;48.10;;;;;;5056622;28;20036;-67
2022/03/20 00:39:11;;;;;;;38.27;19.10;;;4.50;48.00;;;;;;5065866;28;20029;-66
2022/03/20 00:41:37;;;;;;;36.87;18.70;;;4.40;47.90;;;;;;5064343;28;20037;-65
2022/03/20 00:44:02;;;;;;;31.83;13.83;;;4.30;47.70;;;;;;5062079;28;20029;-65
2022/03/20 00:46:28;;;;;;;38.77;17.13;;;;;;;;;;5053258;28;20542;-66
2022/03/20 00:48:54;;;;;;;34.80;18.57;;;4.40;47.00;;;;;;5048072;28;20033;-68
2022/03/20 00:51:20;;;;;;;33.73;17.53;;;4.40;47.00;;;;;;5042131;28;20110;-66
2022/03/20 00:53:46;;;;;;;35.80;17.13;;;4.40;46.90;;;;;;5048149;28;20481;-65
2022/03/20 00:56:12;;;;;;;38.57;18.27;;;4.30;46.80;;;;;;5051965;28;20029;-65
2022/03/20 00:58:38;;;;;;;29.30;14.93;;;4.30;46.60;;;;;;5053377;28;20033;-67
2022/03/20 01:01:04;;;;;;;30.73;14.80;;;4.40;45.70;;;;;;5051365;28;20036;-67
2022/03/20 01:03:30;;;;;;;30.97;16.37;;;4.40;46.10;;;;;;5046547;28;20577;-66
2022/03/20 01:05:56;;;;;;;30.40;17.20;;;4.50;46.20;;;;;;5048111;28;20037;-65
2022/03/20 01:08:23;;;;;;;31.70;15.20;;;4.30;46.30;;;;;;5057610;28;20036;-66
2022/03/20 01:10:49;;;;;;;33.73;13.10;;;;;;;;;;5062314;22;20046;-73
2022/03/20 01:13:16;;;;;;;24.83;10.90;;;;;;;;;;5037450;28;20081;-73
2022/03/20 01:15:42;;;;;;;34.17;17.00;;;4.40;45.70;;;;;;5037060;28;20025;-74
2022/03/20 01:18:08;;;;;;;31.00;14.00;;;4.30;46.70;;;;;;5033940;28;20025;-73
2022/03/20 01:20:34;;;;;;;33.40;16.60;;;4.20;47.00;;;;;;5033697;28;20057;-73
2022/03/20 01:23:00;;;;;;;32.47;16.87;;;4.20;47.20;;;;;;5034088;28;20029;-73
2022/03/20 01:25:26;;;;;;;33.40;17.23;;;4.10;47.70;;;;;;5033727;28;20116;-73
2022/03/20 01:27:52;;;;;;;36.43;17.93;;;4.10;47.40;;;;;;5015598;28;20057;-71
2022/03/20 01:30:18;;;;;;;34.63;16.97;;;4.10;47.40;;;;;;5022622;28;20457;-72
2022/03/20 01:32:43;;;;;;;27.83;14.77;;;4.10;47.40;;;;;;5032992;28;20029;-72
2022/03/20 01:35:09;;;;;;;33.60;17.60;;;4.00;47.30;;;;;;5030200;28;20498;-73
2022/03/20 01:37:36;;;;;;;35.53;17.13;;;4.10;46.80;;;;;;5033018;28;20026;-72
2022/03/20 01:40:03;;;;;;;27.40;13.93;;;4.00;47.10;;;;;;5031175;28;20017;-74
2022/03/20 01:42:29;;;;;;;36.53;17.47;;;4.00;47.30;;;;;;5033068;28;20065;-73
2022/03/20 01:44:55;;;;;;;31.00;16.57;;;3.90;47.50;;;;;;5034569;28;20118;-73
2022/03/20 01:47:21;;;;;;;35.13;17.23;;;3.90;47.10;;;;;;5033315;28;20045;-73
2022/03/20 01:49:46;;;;;;;36.03;18.53;;;3.90;47.50;;;;;;5033290;28;20039;-72
2022/03/20 01:52:14;;;;;;;37.63;18.37;;;3.80;47.90;;;;;;5032106;28;20040;-75
2022/03/20 01:54:47;;;;;;;31.50;16.33;;;3.80;48.20;;;;;;5032665;28;20056;-73
2022/03/20 01:57:17;;;;;;;27.63;14.23;;;3.70;48.40;;;;;;5012962;28;20029;-73
2022/03/20 01:59:44;;;;;;;36.83;17.43;;;3.80;47.90;;;;;;5032718;28;20112;-73
2022/03/20 02:02:11;;;;;;;37.77;17.50;;;3.70;48.50;;;;;;5040138;28;20038;-72
2022/03/20 02:04:37;;;;;;;34.93;16.70;;;3.70;48.80;;;;;;5042539;28;20500;-73
2022/03/20 02:07:06;;;;;;;41.70;22.00;;;3.70;48.80;;;;;;5033649;28;20175;-73
2022/03/20 02:09:34;;;;;;;28.97;15.53;;;3.60;48.90;;;;;;5023016;28;20037;-73
2022/03/20 02:12:00;;;;;;;29.07;13.83;;;3.50;49.30;;;;;;5031146;28;20045;-73
2022/03/20 02:14:30;;;;;;;38.47;17.40;;;3.50;49.40;;;;;;5031271;28;20080;-74
2022/03/20 02:16:56;;;;;;;31.43;15.90;;;3.50;49.60;;;;;;5032849;28;20141;-72
2022/03/20 02:19:23;;;;;;;33.30;16.17;;;;;;;;;;5032518;28;20572;-72
2022/03/20 02:21:50;;;;;;;30.17;13.77;;;3.40;49.20;;;;;;5030984;28;20397;-72
2022/03/20 02:24:41;;;;;;;35.03;17.57;;;3.50;49.40;;;;;;5038979;28;20029;-72
2022/03/20 02:27:23;;;;;;;32.73;16.70;;;3.40;49.10;;;;;;5036917;28;20030;-73
2022/03/20 02:29:53;;;;;;;33.90;15.93;;;;;;;;;;5037573;28;20017;-72
2022/03/20 02:32:27;;;;;;;34.17;15.73;;;3.40;49.20;;;;;;5040171;28;20394;-73
2022/03/20 02:34:53;;;;;;;28.03;12.73;;;3.40;49.80;;;;;;5039819;28;20032;-72
2022/03/20 02:37:22;;;;;;;39.83;18.00;;;3.40;49.30;;;;;;5037579;28;20029;-73
2022/03/20 02:39:48;;;;;;;30.60;16.20;;;3.40;49.50;;;;;;5037568;28;20052;-72
2022/03/20 02:42:16;;;;;;;29.93;16.20;;;3.40;49.00;;;;;;5038427;28;20068;-72
2022/03/20 02:45:09;;;;;;;34.40;17.53;;;3.40;49.60;;;;;;5035576;28;20021;-72
2022/03/20 02:47:38;;;;;;;33.00;16.50;;;3.30;49.40;;;;;;5031493;28;20029;-71
2022/03/20 02:50:27;;;;;;;27.47;16.27;;;3.40;49.60;;;;;;5034768;28;20474;-71
2022/03/20 02:52:58;;;;;;;24.60;12.50;;;3.40;49.40;;;;;;5030905;28;20021;-73
2022/03/20 02:55:26;;;;;;;28.50;14.03;;;3.30;48.60;;;;;;5035686;28;20033;-71
2022/03/20 02:57:54;;;;;;;28.43;16.43;;;3.40;48.40;;;;;;5037411;28;20449;-73
2022/03/20 03:00:24;;;;;;;31.63;15.33;;;3.40;48.90;;;;;;5035397;28;20033;-74
2022/03/20 03:02:52;;;;;;;34.27;15.57;;;3.40;48.10;;;;;;5035091;28;20093;-73
2022/03/20 03:05:18;;;;;;;28.90;15.63;;;3.40;48.60;;;;;;5033459;28;20056;-74
2022/03/20 03:13:17;;;;;;;34.90;16.50;;;3.30;49.20;;;;;;5034821;28;20392;-73
2022/03/20 03:15:44;;;;;;;32.70;15.93;;;3.20;49.40;;;;;;5035488;28;20026;-72
2022/03/20 03:18:10;;;;;;;25.17;12.70;;;3.20;49.60;;;;;;5036353;28;20097;-73
2022/03/20 03:20:36;;;;;;;20.80;11.07;;;3.20;48.90;;;;;;5035401;28;20041;-73
2022/03/20 03:23:05;;;;;;;39.17;15.73;;;3.20;49.40;;;;;;5035473;28;20029;-74
2022/03/20 03:25:32;;;;;;;32.23;16.97;;;;;;;;;;5035060;28;20123;-72
2022/03/20 03:27:59;;;;;;;30.13;14.60;;;3.20;48.90;;;;;;5035270;28;20033;-75
2022/03/20 03:30:25;;;;;;;32.53;16.97;;;3.20;49.50;;;;;;5042346;28;20158;-73
2022/03/20 03:32:51;;;;;;;35.23;17.20;;;3.10;49.20;;;;;;5038811;28;20048;-72
2022/03/20 03:38:03;;;;;;;11.27;6.82;;;3.10;49.40;;;;;;5052038;28;20033;-73
2022/03/20 03:40:30;;;;;;;33.57;16.03;;;3.10;49.30;;;;;;5050403;28;20029;-73
2022/03/20 03:42:57;;;;;;;47.37;21.40;;;3.10;49.70;;;;;;5035742;28;20030;-73
2022/03/20 03:45:25;;;;;;;31.93;15.80;;;3.10;50.00;;;;;;5032717;28;20036;-72
2022/03/20 03:47:52;;;;;;;32.53;16.00;;;3.00;50.00;;;;;;5033609;28;20021;-72
2022/03/20 03:50:24;;;;;;;34.83;15.53;;;3.00;50.00;;;;;;5032480;28;20034;-73
2022/03/20 03:52:49;;;;;;;36.17;15.87;;;3.00;50.00;;;;;;5033332;28;20017;-72
2022/03/20 03:55:16;;;;;;;27.80;14.33;;;3.00;50.10;;;;;;5041516;28;20044;-72
2022/03/20 03:57:49;;;;;;;31.83;16.07;;;3.00;49.80;;;;;;5054685;28;20018;-71
2022/03/20 04:00:19;;;;;;;39.50;22.70;;;2.90;50.10;;;;;;5043146;28;20032;-73
2022/03/20 04:02:46;;;;;;;30.23;13.73;;;2.90;50.10;;;;;;5040845;28;20472;-71
2022/03/20 04:05:15;;;;;;;35.63;16.50;;;2.90;50.20;;;;;;5041482;28;20093;-72
2022/03/20 04:07:41;;;;;;;39.27;17.37;;;2.90;50.00;;;;;;5035590;28;20137;-72
2022/03/20 04:10:07;;;;;;;34.97;16.43;;;2.80;50.30;;;;;;5039343;28;20027;-73
2022/03/20 04:12:36;;;;;;;37.60;17.60;;;2.80;50.60;;;;;;5039387;28;20108;-72
2022/03/20 04:15:06;;;;;;;36.03;16.67;;;2.80;50.80;;;;;;5034113;28;20026;-74
2022/03/20 04:17:32;;;;;;;35.00;17.43;;;2.80;50.90;;;;;;5029921;28;20057;-72
2022/03/20 04:19:58;;;;;;;38.73;16.97;;;2.70;51.30;;;;;;5033624;28;20028;-73
2022/03/20 04:22:28;;;;;;;36.33;17.37;;;2.60;51.30;;;;;;5031481;28;20401;-73
2022/03/20 04:24:55;;;;;;;38.80;16.63;;;2.60;51.30;;;;;;5033421;28;20108;-73
2022/03/20 04:27:21;;;;;;;35.70;16.50;;;2.60;51.70;;;;;;5032111;28;20113;-72
2022/03/20 04:29:48;;;;;;;34.40;17.77;;;2.50;52.20;;;;;;5048685;28;20041;-72
2022/03/20 04:32:13;;;;;;;34.53;15.17;;;2.40;52.50;;;;;;5031054;28;20043;-72
2022/03/20 04:34:41;;;;;;;37.70;17.67;;;2.50;52.70;;;;;;5033861;28;20092;-72
2022/03/20 04:37:07;;;;;;;33.43;16.77;;;;;;;;;;5034720;28;20110;-72
2022/03/20 04:39:37;;;;;;;36.43;17.20;;;;;;;;;;5034867;28;20024;-72
2022/03/20 04:42:04;;;;;;;33.97;16.83;;;2.30;52.80;;;;;;5030855;28;20036;-71
2022/03/20 04:44:30;;;;;;;30.77;14.87;;;2.30;53.30;;;;;;5032170;28;20029;-72
2022/03/20 04:46:56;;;;;;;37.93;18.00;;;2.30;53.60;;;;;;5032000;28;20048;-74
2022/03/20 04:58:29;;;;;;;42.47;22.95;;;2.20;54.00;;;;;;5032384;28;20052;-72
2022/03/20 05:00:21;;;;;;;35.33;16.60;;;;;;;;;;5033512;28;20032;-72
2022/03/20 05:02:48;;;;;;;35.20;16.23;;;2.00;53.60;;;;;;5031618;28;20028;-72
2022/03/20 05:05:14;;;;;;;38.03;17.67;;;2.10;54.10;;;;;;5031926;28;20022;-72
2022/03/20 05:07:40;;;;;;;27.03;13.73;;;2.00;54.50;;;;;;5036173;28;20029;-73
2022/03/20 05:15:39;;;;;;;38.72;17.63;;;;;;;;;;5027217;28;20437;-72
2022/03/20 05:18:09;;;;;;;35.90;17.63;;;2.00;54.50;;;;;;5032407;28;20416;-71
2022/03/20 05:20:35;;;;;;;34.00;15.60;;;;;;;;;;5025783;28;20504;-71
2022/03/20 05:23:01;;;;;;;31.37;14.47;;;;;;;;;;5032055;28;20114;-71
2022/03/20 05:25:30;;;;;;;31.70;14.40;;;1.90;54.60;;;;;;5032638;28;20025;-72
2022/03/20 05:27:57;;;;;;;41.73;17.60;;;1.90;55.20;;;;;;5030449;28;20335;-71
2022/03/20 05:30:23;;;;;;;35.57;16.03;;;1.90;55.20;;;;;;5024229;28;20033;-72
2022/03/20 05:32:50;;;;;;;36.73;17.53;;;1.90;55.10;;;;;;5034166;28;20093;-75
2022/03/20 05:35:17;;;;;;;37.93;15.60;;;1.90;55.10;;;;;;5033958;28;20076;-71
2022/03/20 05:37:44;;;;;;;23.47;10.67;;;;;;;;;;5031667;28;20438;-73
2022/03/20 05:40:10;;;;;;;20.53;10.70;;;2.00;54.60;;;;;;5031599;28;20030;-72
2022/03/20 05:42:36;;;;;;;38.27;18.00;;;1.90;55.00;;;;;;5033304;28;20041;-73
2022/03/20 05:45:05;;;;;;;37.30;16.10;;;1.90;55.20;;;;;;5033161;28;20027;-74
2022/03/20 05:47:34;;;;;;;38.13;17.03;;;1.90;55.30;;;;;;5033788;28;20049;-72
2022/03/20 05:50:01;;;;;;;36.60;16.57;;;1.90;55.00;;;;;;5025699;28;20041;-73
2022/03/20 05:52:31;;;;;;;36.53;18.47;;;2.00;54.80;;;;;;5026778;28;20038;-74
2022/03/20 05:54:59;;;;;;;37.10;18.23;;;2.00;54.30;;;;;;5026204;28;20485;-73
2022/03/20 06:00:16;;;;;;;39.22;17.98;;;2.20;53.40;;;;;;5021817;28;20068;-71
2022/03/20 06:02:45;;;;;;;41.60;18.53;;;2.20;53.40;;;;;;5022371;28;20021;-69
2022/03/20 06:05:12;;;;;;;40.73;17.73;;;2.20;53.40;;;;;;5027354;28;20105;-68
2022/03/20 06:07:46;;;;;;;36.13;18.17;;;2.20;53.30;;;;;;5026813;28;20056;-68
2022/03/20 06:10:13;;;;;;;26.90;13.52;;;2.20;53.40;;;;;;5023223;28;20053;-68
2022/03/20 06:12:39;;;;;;;35.40;17.57;;;2.30;53.30;;;;;;5030817;28;20041;-67
2022/03/20 06:15:08;;;;;;;35.20;17.53;;;2.30;53.20;;;;;;5030639;28;20051;-69
2022/03/20 06:17:36;;;;;;;35.93;16.07;;;2.30;53.10;;;;;;5026411;28;20017;-70
2022/03/20 06:20:03;;;;;;;34.23;17.90;;;2.40;53.00;;;;;;5024802;28;20505;-72
2022/03/20 06:22:29;;;;;;;37.03;17.07;;;2.40;52.90;;;;;;5022030;28;20123;-71
2022/03/20 06:24:55;;;;;;;37.27;18.50;;;2.40;52.60;;;;;;5028551;28;20083;-70
2022/03/20 06:27:20;;;;;;;41.57;17.90;;;2.40;52.40;;;;;;5028506;28;20033;-69
2022/03/20 06:29:46;;;;;;;37.33;18.67;;;2.50;52.50;;;;;;5028486;28;20040;-70
2022/03/20 06:32:11;;;;;;;36.43;18.27;;;2.60;52.30;;;;;;5028878;28;20033;-70
2022/03/20 06:34:37;;;;;;;36.10;18.10;;;2.60;52.20;;;;;;5025334;28;20033;-69
2022/03/20 06:37:02;;;;;;;40.23;19.00;;;2.70;51.80;;;;;;5029684;28;20041;-68
2022/03/20 06:39:28;;;;;;;33.63;18.03;;;2.80;52.10;;;;;;5033913;28;20025;-69
2022/03/20 06:41:54;;;;;;;37.03;19.03;;;2.80;51.30;;;;;;5030946;28;20517;-67
2022/03/20 06:44:19;;;;;;;34.70;17.87;;;3.10;51.00;;;;;;5029118;28;20025;-68
2022/03/20 06:46:45;;;;;;;37.33;18.23;;;3.20;50.50;;;;;;5028971;28;20108;-69
2022/03/20 06:49:11;;;;;;;36.73;17.97;;;3.20;50.30;;;;;;5028219;28;20052;-67
2022/03/20 06:51:37;;;;;;;43.73;19.70;;;;;;;;;;5024936;28;20022;-68
2022/03/20 06:54:04;;;;;;;35.25;19.45;;;;;;;;;;5027206;28;20018;-68
2022/03/20 06:56:30;;;;;;;39.40;19.42;;;6.20;42.30;;;;;;5030048;28;20326;-69
2022/03/20 06:58:57;;;;;;;39.08;19.48;;;7.10;41.90;;;;;;5030279;28;20030;-68
2022/03/20 07:01:23;;;;;;;40.20;19.50;;;8.40;38.10;;;;;;5027669;28;20049;-68
2022/03/20 07:03:49;;;;;;;39.28;20.02;;;9.60;36.10;;;;;;5029645;28;20022;-69
2022/03/20 07:06:14;;;;;;;41.60;21.83;;;8.50;33.70;;;;;;5028826;28;20351;-68
2022/03/20 07:08:40;;;;;;;41.45;20.65;;;7.50;36.30;;;;;;5030860;28;20246;-68
2022/03/20 07:11:05;;;;;;;38.67;19.08;;;7.30;39.80;;;;;;5031451;22;20046;-65
2022/03/20 07:13:49;;;;;;;36.95;20.92;;;9.40;36.70;;;;;;5018186;28;20036;-63
2022/03/20 07:16:15;;;;;;;41.45;21.13;;;8.80;34.90;;;;;;5027214;28;20026;-64
2022/03/20 07:18:47;;;;;;;39.53;22.17;;;8.90;37.10;;;;;;5020035;28;20093;-64
2022/03/20 07:21:14;;;;;;;35.83;19.50;;;7.70;39.20;;;;;;5015454;28;20057;-63
2022/03/20 07:23:40;;;;;;;36.30;19.75;;;6.70;40.20;;;;;;5013026;28;20061;-63
2022/03/20 07:31:34;;;;;;;39.33;20.67;;;8.20;37.30;;;;;;5013575;28;20184;-64
2022/03/20 07:34:00;;;;;;;41.45;21.08;;;;;;;;;;5011965;28;20538;-66
2022/03/20 07:36:26;;;;;;;32.78;20.05;;;10.80;31.40;;;;;;5012541;28;20026;-63
2022/03/20 07:38:52;;;;;;;35.08;21.25;;;11.50;31.10;;;;;;5010639;28;20018;-66
2022/03/20 07:41:18;;;;;;;39.10;21.80;;;10.20;31.90;;;;;;5012635;28;20022;-64
2022/03/20 07:43:43;;;;;;;39.92;22.08;;;12.20;28.80;;;;;;5018781;28;20026;-65
2022/03/20 07:46:09;;;;;;;35.58;19.70;;;11.60;29.10;;;;;;5011612;28;22227;-64
2022/03/20 07:48:35;;;;;;;36.70;20.30;;;12.10;28.40;;;;;;5013759;28;20026;-66
2022/03/20 07:51:01;;;;;;;36.30;19.77;;;;;;;;;;5009043;28;20045;-64
2022/03/20 07:53:27;;;;;;;40.78;20.20;;;9.30;32.90;;;;;;5011624;28;20014;-63
2022/03/20 07:55:53;;;;;;;39.25;21.52;;;11.90;28.40;;;;;;5008616;28;20391;-64
2022/03/20 07:58:20;;;;;;;34.90;20.40;;;;;;;;;;5009925;28;20017;-64
2022/03/20 08:00:46;;;;;;;34.92;19.45;;;;;;;;;;5013623;28;20033;-64
2022/03/20 08:03:12;;;;;;;36.88;19.92;;;11.20;30.00;;;;;;5013605;28;20417;-64
2022/03/20 08:05:38;;;;;;;35.58;20.85;;;14.20;25.50;;;;;;5009288;28;20245;-66
2022/03/20 08:08:04;;;;;;;35.88;20.35;;;;;;;;;;5010346;28;20029;-64
2022/03/20 08:10:30;;;;;;;38.88;21.48;;;13.60;25.40;;;;;;5008335;28;20030;-65
2022/03/20 08:12:56;;;;;;;38.35;20.90;;;13.30;26.60;;;;;;5014179;28;20032;-67
2022/03/20 08:15:23;;;;;;;39.55;20.52;;;12.00;26.60;;;;;;5011120;28;20348;-66
2022/03/20 08:17:50;;;;;;;36.83;21.60;;;12.80;27.30;;;;;;5021763;28;20022;-67
2022/03/20 08:20:16;;;;;;;38.30;20.70;;;;;;;;;;5015456;28;20030;-73
2022/03/20 08:22:42;;;;;;;39.13;21.10;;;14.80;24.10;;;;;;5011086;28;20060;-69
2022/03/20 08:25:10;;;;;;;36.50;20.40;;;13.50;25.50;;;;;;5014506;28;20022;-67
2022/03/20 08:27:46;;;;;;;35.40;20.85;;;11.80;27.90;;;;;;5015978;28;20026;-66
2022/03/20 08:30:15;;;;;;;39.00;20.35;;;10.80;29.90;;;;;;5016441;28;20026;-67
2022/03/20 08:32:41;;;;;;;40.30;21.27;;;;;;;;;;5011237;28;20029;-67
2022/03/20 08:35:07;;;;;;;40.75;20.30;;;;;;;;;;5017028;28;20018;-66
2022/03/20 08:37:34;;;;;;;38.97;21.63;;;13.50;26.90;;;;;;5018506;28;20056;-66
2022/03/20 08:40:00;;;;;;;36.03;20.48;;;16.00;23.30;;;;;;5013306;28;20109;-67
2022/03/20 08:42:26;;;;;;;35.97;21.65;;;16.00;23.50;;;;;;5016095;28;20476;-67
2022/03/20 08:44:52;;;;;;;35.65;21.90;;;15.30;22.30;;;;;;5016515;28;20038;-67
2022/03/20 08:47:19;;;;;;;35.95;22.58;;;;;;;;;;5018323;28;20032;-68
2022/03/20 08:49:45;;;;;;;38.83;22.75;;;17.70;21.30;;;;;;5011479;28;20026;-67
2022/03/20 08:52:10;;;;;;;34.55;21.92;;;17.80;20.60;;;;;;5014806;28;20506;-67
2022/03/20 08:54:36;;;;;;;37.30;22.63;;;;;;;;;;5018503;28;20036;-67
2022/03/20 08:57:05;;;;;;;36.30;22.90;;;17.90;20.60;;;;;;5014484;28;20686;-68
2022/03/20 08:59:31;;;;;;;36.42;22.70;;;17.10;20.70;;;;;;5005960;28;20387;-67
2022/03/20 09:01:56;;;;;;;34.53;21.20;;;17.80;20.70;;;;;;5011925;28;20026;-68
2022/03/20 09:04:22;;;;;;;40.63;23.35;;;17.50;20.20;;;;;;5017150;28;20494;-68
2022/03/20 09:06:49;;;;;;;35.40;22.48;;;14.80;22.20;;;;;;5017287;28;20548;-67
2022/03/20 09:09:15;;;;;;;35.25;21.77;;;15.70;21.70;;;;;;5013601;28;20167;-67
2022/03/20 09:11:45;;;;;;;36.15;22.10;;;16.10;22.40;;;;;;5010030;28;20120;-66
2022/03/20 09:14:11;;;;;;;37.05;23.60;;;;;;;;;;5014767;28;20025;-66
2022/03/20 09:19:21;;;;;;;39.03;21.83;;;11.40;27.80;;;;;;5027606;28;20036;-65
2022/03/20 09:21:46;;;;;;;32.42;19.13;;;9.70;30.30;;;;;;5022770;28;20104;-66
2022/03/20 09:24:12;;;;;;;36.53;20.45;;;;;;;;;;5024221;28;20088;-67
2022/03/20 09:26:39;;;;;;;39.95;19.35;;;;;;;;;;5012828;28;20044;-66
2022/03/20 09:29:05;;;;;;;35.53;19.20;;;8.80;32.70;;;;;;5013602;28;20056;-64
2022/03/20 09:31:34;;;;;;;39.38;18.80;;;8.90;33.00;;;;;;5012601;28;20084;-66
2022/03/20 09:34:01;;;;;;;36.35;18.35;;;;;;;;;;5011318;28;20041;-66
2022/03/20 09:36:27;;;;;;;36.85;18.98;;;9.10;32.10;;;;;;5013438;28;20033;-67
2022/03/20 09:38:53;;;;;;;34.22;18.73;;;9.00;32.70;;;;;;5015214;28;20029;-67
2022/03/20 09:41:18;;;;;;;39.20;20.27;;;9.20;32.60;;;;;;5012348;28;20032;-65
2022/03/20 09:43:45;;;;;;;34.08;18.88;;;9.20;32.60;;;;;;5012985;28;20025;-65
2022/03/20 09:46:11;;;;;;;37.50;18.50;;;9.00;32.60;;;;;;5018097;28;20058;-66
2022/03/20 09:48:37;;;;;;;33.83;18.98;;;8.90;32.90;;;;;;5014344;28;20033;-65
2022/03/20 09:51:05;;;;;;;32.42;18.98;;;9.20;33.00;;;;;;5012169;28;20030;-65
2022/03/20 09:53:31;;;;;;;37.13;18.65;;;9.20;33.00;;;;;;5013652;28;20030;-66
2022/03/20 09:55:57;;;;;;;35.83;18.95;;;9.30;32.90;;;;;;5016400;28;20041;-65
2022/03/20 09:58:27;;;;;;;32.20;17.80;;;;;;;;;;5017698;28;20021;-66
2022/03/20 10:00:54;;;;;;;34.55;18.60;;;;;;;;;;5011070;28;20454;-65
2022/03/20 10:03:21;;;;;;;32.47;18.45;;;;;;;;;;5011627;28;20029;-66
2022/03/20 10:06:17;;;;;;;36.40;19.98;;;;;;;;;;5013088;28;20038;-66
2022/03/20 10:09:01;;;;;;;39.88;19.35;;;9.50;32.10;;;;;;5006558;28;20038;-65
2022/03/20 10:11:26;;;;;;;37.25;18.63;;;9.60;32.60;;;;;;5017668;28;20034;-67
2022/03/20 10:14:10;;;;;;;37.90;19.35;;;9.60;32.20;;;;;;5036108;28;20437;-66
2022/03/20 10:16:42;;;;;;;37.20;18.15;;;9.70;32.10;;;;;;5021044;28;20092;-67
2022/03/20 10:19:26;;;;;;;35.47;17.48;;;10.00;31.30;;;;;;5021558;28;20030;-66
2022/03/20 10:21:57;;;;;;;29.77;16.73;;;9.70;31.30;;;;;;5026028;28;20038;-66
2022/03/20 10:24:24;;;;;;;27.00;16.52;;;9.80;31.00;;;;;;5017589;28;20026;-66
2022/03/20 10:26:59;;;;;;;28.38;16.27;;;9.80;30.70;;;;;;5015917;28;20385;-66
2022/03/20 10:29:25;;;;;;;30.75;17.42;;;9.80;29.90;;;;;;5019205;28;20040;-67
2022/03/20 10:31:53;;;;;;;32.33;16.00;;;9.90;30.00;;;;;;5017006;28;20034;-65
2022/03/20 10:34:19;;;;;;;31.20;17.75;;;9.90;30.00;;;;;;5010180;28;20026;-65
2022/03/20 10:36:46;;;;;;;30.40;16.35;;;10.00;30.50;;;;;;5015252;28;20040;-66
2022/03/20 10:39:19;;;;;;;29.70;16.20;;;10.30;30.00;;;;;;5012540;28;20027;-64
2022/03/20 10:41:46;;;;;;;29.50;16.00;;;10.30;30.00;;;;;;5017347;28;20030;-66
2022/03/20 10:44:19;;;;;;;31.00;17.27;;;10.30;29.40;;;;;;5013525;28;20033;-65
2022/03/20 10:46:56;;;;;;;27.50;15.40;;;;;;;;;;5015180;28;20057;-66
2022/03/20 10:49:22;;;;;;;29.20;15.85;;;;;;;;;;5015887;28;20489;-66
2022/03/20 10:52:01;;;;;;;30.00;16.20;;;;;;;;;;5016240;28;20022;-66
2022/03/20 10:54:38;;;;;;;27.42;16.40;;;;;;;;;;5018499;28;20593;-67
2022/03/20 10:57:05;;;;;;;32.35;17.23;;;;;;;;;;5021256;28;20026;-67
2022/03/20 10:59:31;;;;;;;32.45;15.68;;;;;;;;;;5004284;28;20038;-65
2022/03/20 11:01:58;;;;;;;27.08;15.68;;;;;;;;;;5018885;28;20037;-66
2022/03/20 11:04:24;;;;;;;28.90;15.55;;;;;;;;;;5019506;28;20072;-65
2022/03/20 11:06:54;;;;;;;30.38;15.85;;;10.70;27.90;;;;;;5021618;28;20029;-67
2022/03/20 11:09:19;;;;;;;27.05;14.95;;;10.70;28.30;;;;;;5017167;28;20042;-67
2022/03/20 11:11:50;;;;;;;27.48;16.35;;;;;;;;;;5015880;28;20033;-66
2022/03/20 11:14:20;;;;;;;29.00;16.73;;;10.70;28.20;;;;;;5015535;28;20335;-66
2022/03/20 11:16:59;;;;;;;27.75;14.57;;;10.60;28.80;;;;;;5010171;28;20022;-65
2022/03/20 11:19:29;;;;;;;28.13;15.35;;;10.70;28.50;;;;;;5014775;28;20478;-70
2022/03/20 11:22:00;;;;;;;25.73;14.88;;;10.90;28.20;;;;;;5016967;28;20037;-68
2022/03/20 11:24:28;;;;;;;26.63;15.27;;;10.70;28.20;;;;;;5016322;28;20064;-68
2022/03/20 11:26:59;;;;;;;27.55;15.93;;;10.80;28.60;;;;;;5021109;28;20042;-67
2022/03/20 11:29:26;;;;;;;30.00;15.43;;;11.00;28.60;;;;;;5022967;28;20030;-67
2022/03/20 11:31:53;;;;;;;26.52;14.52;;;10.90;28.70;;;;;;5023408;28;20115;-68
2022/03/20 11:34:19;;;;;;;25.88;14.23;;;11.10;28.40;;;;;;5032680;28;20347;-67
2022/03/20 11:37:02;;;;;;;29.42;15.98;;;11.00;27.90;;;;;;5021063;28;20501;-68
2022/03/20 11:39:28;;;;;;;31.38;15.90;;;11.10;28.20;;;;;;5015952;28;20050;-64
2022/03/20 11:42:22;;;;;;;31.10;16.10;;;11.10;28.30;;;;;;5022637;28;20037;-67
2022/03/20 11:45:00;;;;;;;30.85;16.35;;;11.30;28.40;;;;;;5018470;28;20685;-66
2022/03/20 11:47:30;;;;;;;35.65;18.25;;;11.10;28.30;;;;;;5001397;28;20586;-66
2022/03/20 11:50:14;;;;;;;28.45;16.02;;;11.30;28.40;;;;;;5018488;28;20034;-66
2022/03/20 11:52:58;;;;;;;30.88;17.67;;;11.50;28.50;;;;;;5017669;28;20033;-65
2022/03/20 11:55:36;;;;;;;32.08;17.35;;;11.50;28.30;;;;;;5016169;28;20037;-65
2022/03/20 11:58:22;;;;;;;30.00;15.73;;;11.70;28.20;;;;;;5020694;28;20034;-66
2022/03/20 12:01:02;;;;;;;32.42;16.48;;;11.60;28.10;;;;;;5015154;28;20026;-65
2022/03/20 12:03:58;;;;;;;29.42;16.00;;;11.80;28.00;;;;;;5023241;28;20030;-65
2022/03/20 12:06:27;;;;;;;27.58;16.60;;;11.80;27.20;;;;;;5009341;28;20034;-66
2022/03/20 12:09:10;;;;;;;27.70;15.18;;;11.90;27.00;;;;;;5018680;28;20030;-65
2022/03/20 12:12:18;;;;;;;27.38;15.90;;;12.00;27.40;;;;;;5011380;28;20032;-66
2022/03/20 12:14:53;;;;;;;32.63;16.15;;;12.20;27.10;;;;;;5012463;28;20026;-66
2022/03/20 12:17:18;;;;;;;30.02;15.63;;;11.90;27.20;;;;;;5014906;28;20088;-65
2022/03/20 12:19:48;;;;;;;29.45;15.75;;;12.10;27.20;;;;;;5015360;28;20433;-65
2022/03/20 12:22:27;;;;;;;29.15;15.48;;;12.20;26.90;;;;;;5014166;28;20034;-67
2022/03/20 12:25:03;;;;;;;28.60;14.90;;;12.30;26.90;;;;;;5019587;28;20026;-68
2022/03/20 12:27:34;;;;;;;29.98;17.40;;;12.40;26.90;;;;;;5017161;28;20022;-65
2022/03/20 12:30:11;;;;;;;27.25;15.65;;;12.30;26.90;;;;;;5015282;28;20030;-66
2022/03/20 12:32:48;;;;;;;28.85;15.68;;;12.30;26.70;;;;;;5010543;28;20034;-68
2022/03/20 12:35:14;;;;;;;28.27;15.43;;;12.30;27.00;;;;;;5012937;28;20026;-64
2022/03/20 12:37:42;;;;;;;31.35;16.38;;;12.20;26.70;;;;;;5015613;28;20082;-66
2022/03/20 12:40:28;;;;;;;27.05;15.27;;;;;;;;;;5000265;28;20026;-65
2022/03/20 12:43:00;;;;;;;26.58;15.18;;;12.70;25.90;;;;;;5012320;28;20044;-65
2022/03/20 12:45:27;;;;;;;26.30;14.98;;;12.40;25.90;;;;;;5015737;28;20026;-65
2022/03/20 12:48:05;;;;;;;25.02;14.90;;;12.50;26.20;;;;;;5017131;28;20038;-66
2022/03/20 12:50:36;;;;;;;26.70;14.70;;;12.50;26.20;;;;;;5007878;28;20112;-66
2022/03/20 12:53:17;;;;;;;26.65;15.15;;;12.70;26.20;;;;;;5011829;28;20397;-65
2022/03/20 12:55:46;;;;;;;27.73;14.93;;;;;;;;;;5014499;28;20659;-66
2022/03/20 12:58:16;;;;;;;26.63;15.18;;;12.70;26.30;;;;;;5030161;28;20022;-67
2022/03/20 13:00:43;;;;;;;26.88;14.90;;;12.60;26.40;;;;;;5026035;28;20303;-66
2022/03/20 13:03:09;;;;;;;25.83;14.30;;;12.70;26.10;;;;;;5013493;28;20034;-64
2022/03/20 13:05:57;;;;;;;24.10;15.63;;;12.80;25.90;;;;;;5011272;28;20029;-65
2022/03/20 13:08:28;;;;;;;21.90;14.32;;;12.70;25.90;;;;;;5011861;28;20034;-65
2022/03/20 13:11:04;;;;;;;26.73;14.45;;;12.70;25.20;;;;;;5059072;23;20191;-74
2022/03/20 13:13:34;;;;;;;24.60;13.63;;;12.70;25.60;;;;;;5059421;28;20021;-73
2022/03/20 13:16:01;;;;;;;28.27;15.25;;;12.60;25.10;;;;;;5054900;28;20485;-70
2022/03/20 13:18:29;;;;;;;23.05;13.43;;;12.70;25.50;;;;;;5054111;28;20017;-71
2022/03/20 13:20:55;;;;;;;24.63;14.20;;;12.60;25.60;;;;;;5052744;28;20150;-70
2022/03/20 13:23:25;;;;;;;21.38;13.93;;;12.50;25.80;;;;;;5050146;28;20036;-71
2022/03/20 13:25:53;;;;;;;23.92;14.45;;;12.70;25.60;;;;;;5054786;28;20040;-70